createdAt,value
2023-05-01T00:04:09.308Z,8.49
2023-05-01T00:09:11.116Z,8.48
2023-05-01T00:14:12.634Z,8.56
2023-05-01T00:19:18.323Z,8.39
2023-05-01T00:24:20.059Z,8.44
2023-05-01T00:29:21.704Z,8.52
2023-05-01T00:34:25.061Z,8.34
2023-05-01T00:39:26.625Z,8.34
2023-05-01T00:44:28.225Z,8.24
2023-05-01T00:49:29.855Z,8.25
2023-05-01T00:54:31.450Z,8.20
2023-05-01T00:59:33.070Z,8.08
2023-05-01T01:04:34.722Z,8.06
2023-05-01T01:09:49.994Z,7.87
2023-05-01T01:15:10.661Z,7.85
2023-05-01T01:20:30.449Z,7.76
2023-05-01T01:25:41.555Z,7.82
2023-05-01T01:30:43.655Z,7.69
2023-05-01T01:35:51.194Z,7.79
2023-05-01T01:41:00.580Z,7.88
2023-05-01T01:46:03.745Z,7.57
2023-05-01T01:51:10.425Z,7.65
2023-05-01T01:56:12.588Z,7.60
2023-05-01T02:01:16.061Z,7.59
2023-05-01T02:06:17.762Z,7.52
2023-05-01T02:11:21.114Z,7.58
2023-05-01T02:16:25.304Z,7.34
2023-05-01T02:21:28.077Z,7.16
2023-05-01T02:26:32.095Z,7.26
2023-05-01T02:31:35.522Z,7.24
2023-05-01T02:36:37.336Z,7.28
2023-05-01T02:41:40.428Z,7.14
2023-05-01T02:46:44.846Z,7.10
2023-05-01T02:51:47.092Z,7.09
2023-05-01T02:56:49.028Z,6.96
2023-05-01T03:01:51.175Z,6.86
2023-05-01T03:06:54.074Z,6.88
2023-05-01T03:11:55.908Z,6.73
2023-05-01T03:16:58.560Z,6.57
2023-05-01T03:22:00.303Z,6.42
2023-05-01T03:27:02.493Z,6.32
2023-05-01T03:32:04.960Z,6.33
2023-05-01T03:37:06.723Z,6.39
2023-05-01T03:42:08.383Z,6.62
2023-05-01T03:47:15.013Z,6.58
2023-05-01T03:52:17.680Z,6.52
2023-05-01T03:57:26.959Z,6.34
2023-05-01T04:02:28.670Z,6.44
2023-05-01T04:07:30.340Z,6.54
2023-05-01T04:12:32.208Z,6.59
2023-05-01T04:17:35.843Z,6.96
2023-05-01T04:22:37.636Z,6.96
2023-05-01T04:27:39.284Z,7.16
2023-05-01T04:32:40.927Z,7.08
2023-05-01T04:37:42.534Z,7.33
2023-05-01T04:42:44.670Z,7.23
2023-05-01T04:47:49.076Z,7.24
2023-05-01T04:52:50.709Z,7.41
2023-05-01T04:57:52.369Z,7.72
2023-05-01T05:02:54.010Z,7.85
2023-05-01T05:07:55.904Z,7.83
2023-05-01T05:13:19.980Z,8.06
2023-05-01T05:18:28.098Z,7.80
2023-05-01T05:23:31.332Z,8.11
2023-05-01T05:28:32.977Z,8.30
2023-05-01T05:33:34.751Z,8.45
2023-05-01T05:38:36.595Z,8.81
2023-05-01T05:43:40.511Z,8.86
2023-05-01T05:48:43.324Z,9.11
2023-05-01T05:53:45.284Z,9.31
2023-05-01T05:58:47.360Z,9.42
2023-05-01T06:03:49.582Z,9.69
2023-05-01T06:08:51.456Z,10.05
2023-05-01T06:13:53.134Z,10.26
2023-05-01T06:18:55.827Z,10.62
2023-05-01T06:23:57.533Z,10.82
2023-05-01T06:29:06.058Z,10.99
2023-05-01T06:34:08.635Z,11.22
2023-05-01T06:39:24.574Z,11.34
2023-05-01T06:44:26.227Z,11.57
2023-05-01T06:49:28.502Z,11.83
2023-05-01T06:54:30.141Z,12.25
2023-05-01T06:59:31.762Z,12.23
2023-05-01T07:04:33.375Z,12.56
2023-05-01T07:09:34.992Z,12.76
2023-05-01T07:14:36.726Z,12.92
2023-05-01T07:19:38.768Z,13.00
2023-05-01T07:24:40.328Z,13.26
2023-05-01T07:29:41.966Z,13.36
2023-05-01T07:34:43.574Z,13.65
2023-05-01T07:39:45.410Z,13.76
2023-05-01T07:44:47.110Z,13.80
2023-05-01T07:49:49.998Z,13.72
2023-05-01T07:54:51.639Z,13.80
2023-05-01T07:59:56.884Z,13.93
2023-05-01T08:04:58.865Z,14.19
2023-05-01T08:10:00.935Z,14.22
2023-05-01T08:15:03.020Z,14.29
2023-05-01T08:20:05.073Z,14.30
2023-05-01T08:25:07.174Z,14.33
2023-05-01T08:30:09.386Z,14.42
2023-05-01T08:35:11.548Z,14.59
2023-05-01T08:40:14.981Z,14.61
2023-05-01T08:45:17.703Z,14.56
2023-05-01T08:50:19.440Z,14.60
2023-05-01T08:55:21.554Z,14.91
2023-05-01T09:00:24.844Z,15.16
2023-05-01T09:05:27.063Z,15.10
2023-05-01T09:10:31.775Z,15.27
2023-05-01T09:15:34.687Z,15.34
2023-05-01T09:20:37.787Z,15.44
2023-05-01T09:25:39.414Z,15.53
2023-05-01T09:30:41.097Z,15.42
2023-05-01T09:35:52.974Z,15.35
2023-05-01T09:40:57.118Z,15.57
2023-05-01T09:46:09.697Z,15.61
2023-05-01T09:51:20.598Z,15.64
2023-05-01T09:56:22.639Z,15.36
2023-05-01T10:01:43.660Z,15.41
2023-05-01T10:06:45.587Z,15.63
2023-05-01T10:11:55.667Z,15.69
2023-05-01T10:16:58.084Z,15.95
2023-05-01T10:22:00.123Z,15.96
2023-05-01T10:27:04.759Z,15.98
2023-05-01T10:32:09.729Z,15.82
2023-05-01T10:37:15.460Z,15.85
2023-05-01T10:42:17.948Z,15.82
2023-05-01T10:47:25.478Z,16.12
2023-05-01T10:52:27.235Z,16.09
2023-05-01T10:57:44.544Z,16.14
2023-05-01T11:02:46.146Z,15.89
2023-05-01T11:08:33.959Z,16.21
2023-05-01T11:14:08.215Z,16.40
2023-05-01T11:19:38.365Z,16.72
2023-05-01T11:24:39.958Z,17.15
2023-05-01T11:29:44.435Z,16.96
2023-05-01T11:34:47.071Z,17.16
2023-05-01T11:39:50.200Z,17.13
2023-05-01T11:45:18.962Z,16.93
2023-05-01T11:50:21.948Z,16.95
2023-05-01T11:55:31.604Z,16.89
2023-05-01T12:00:39.407Z,16.89
2023-05-01T12:05:45.294Z,16.78
2023-05-01T12:10:50.618Z,16.82
2023-05-01T12:15:54.408Z,17.00
2023-05-01T12:20:56.419Z,17.30
2023-05-01T12:25:58.255Z,17.11
2023-05-01T12:31:05.434Z,17.36
2023-05-01T12:36:13.498Z,17.22
2023-05-01T12:41:15.064Z,17.07
2023-05-01T12:46:16.716Z,17.25
2023-05-01T12:51:20.012Z,17.39
2023-05-01T12:56:26.721Z,17.36
2023-05-01T13:01:28.990Z,17.45
2023-05-01T13:06:34.209Z,17.51
2023-05-01T13:11:36.187Z,17.52
2023-05-01T13:16:46.805Z,17.44
2023-05-01T13:21:49.533Z,17.55
2023-05-01T13:27:04.248Z,17.70
2023-05-01T13:32:10.511Z,17.56
2023-05-01T13:37:14.731Z,17.64
2023-05-01T13:42:25.812Z,17.58
2023-05-01T13:47:27.758Z,17.57
2023-05-01T13:52:29.398Z,17.60
2023-05-01T13:57:31.434Z,17.63
2023-05-01T14:02:33.122Z,17.69
2023-05-01T14:07:40.570Z,17.62
2023-05-01T14:12:42.798Z,17.67
2023-05-01T14:17:44.755Z,17.84
2023-05-01T14:22:48.531Z,17.92
2023-05-01T14:27:50.979Z,18.01
2023-05-01T14:32:53.131Z,18.12
2023-05-01T14:37:55.225Z,18.15
2023-05-01T14:42:57.783Z,18.40
2023-05-01T14:47:59.378Z,18.35
2023-05-01T14:53:01.287Z,18.24
2023-05-01T14:58:03.547Z,18.39
2023-05-01T15:03:05.353Z,18.33
2023-05-01T15:08:08.244Z,18.41
2023-05-01T15:13:09.805Z,18.52
2023-05-01T15:18:11.615Z,18.47
2023-05-01T15:23:13.246Z,18.50
2023-05-01T15:28:14.875Z,18.60
2023-05-01T15:33:19.133Z,18.55
2023-05-01T15:38:21.628Z,18.57
2023-05-01T15:43:23.418Z,18.56
2023-05-01T15:48:25.773Z,18.54
2023-05-01T15:53:27.401Z,18.52
2023-05-01T15:58:28.977Z,18.48
2023-05-01T16:03:31.029Z,18.41
2023-05-01T16:08:32.832Z,18.42
2023-05-01T16:13:38.186Z,18.42
2023-05-01T16:18:41.893Z,18.39
2023-05-01T16:23:43.547Z,18.38
2023-05-01T16:28:45.386Z,18.33
2023-05-01T16:33:49.196Z,18.32
2023-05-01T16:38:52.573Z,18.38
2023-05-01T16:43:58.544Z,18.30
2023-05-01T16:49:00.166Z,18.24
2023-05-01T16:54:02.052Z,18.19
2023-05-01T16:59:03.660Z,18.12
2023-05-01T17:04:05.269Z,18.02
2023-05-01T17:09:06.898Z,17.97
2023-05-01T17:14:08.565Z,17.98
2023-05-01T17:19:10.150Z,17.93
2023-05-01T17:24:13.823Z,17.90
2023-05-01T17:29:15.457Z,17.80
2023-05-01T17:34:17.023Z,17.74
2023-05-01T17:39:21.707Z,17.73
2023-05-01T17:44:23.510Z,17.62
2023-05-01T17:49:25.223Z,17.58
2023-05-01T17:54:26.998Z,17.51
2023-05-01T17:59:30.659Z,17.50
2023-05-01T18:04:32.332Z,17.46
2023-05-01T18:09:33.922Z,17.45
2023-05-01T18:14:35.659Z,17.40
2023-05-01T18:19:37.221Z,17.40
2023-05-01T18:24:39.013Z,17.36
2023-05-01T18:29:40.621Z,17.37
2023-05-01T18:34:42.872Z,17.32
2023-05-01T18:39:45.658Z,17.28
2023-05-01T18:44:47.257Z,17.25
2023-05-01T18:49:48.836Z,17.27
2023-05-01T18:54:50.702Z,17.22
2023-05-01T18:59:52.290Z,17.20
2023-05-01T19:04:57.741Z,17.17
2023-05-01T19:10:00.156Z,17.11
2023-05-01T19:15:02.034Z,17.03
2023-05-01T19:20:04.483Z,17.03
2023-05-01T19:25:06.402Z,17.01
2023-05-01T19:30:08.605Z,16.96
2023-05-01T19:35:11.603Z,16.96
2023-05-01T19:40:13.326Z,16.93
2023-05-01T19:45:17.646Z,16.89
2023-05-01T19:50:19.720Z,16.85
2023-05-01T19:55:21.325Z,16.81
2023-05-01T20:00:22.949Z,16.78
2023-05-01T20:05:28.116Z,16.72
2023-05-01T20:10:29.752Z,16.60
2023-05-01T20:15:31.735Z,16.49
2023-05-01T20:20:34.938Z,16.44
2023-05-01T20:25:36.623Z,16.35
2023-05-01T20:30:39.973Z,16.20
2023-05-01T20:35:41.698Z,16.21
2023-05-01T20:40:43.395Z,16.06
2023-05-01T20:45:44.966Z,15.84
2023-05-01T20:50:48.193Z,16.07
2023-05-01T20:55:52.761Z,16.01
2023-05-01T21:00:55.480Z,15.87
2023-05-01T21:06:01.056Z,15.96
2023-05-01T21:11:02.737Z,15.76
2023-05-01T21:16:06.603Z,15.81
2023-05-01T21:21:08.618Z,15.89
2023-05-01T21:26:10.299Z,15.76
2023-05-01T21:31:13.252Z,15.81
2023-05-01T21:36:17.225Z,15.80
2023-05-01T21:41:18.844Z,15.70
2023-05-01T21:46:20.672Z,15.79
2023-05-01T21:51:28.530Z,15.77
2023-05-01T21:56:30.837Z,15.71
2023-05-01T22:01:32.446Z,15.70
2023-05-01T22:06:34.308Z,15.67
2023-05-01T22:11:35.996Z,15.39
2023-05-01T22:16:37.591Z,15.49
2023-05-01T22:21:39.346Z,15.43
2023-05-01T22:26:41.172Z,15.25
2023-05-01T22:31:42.802Z,15.38
2023-05-01T22:36:44.618Z,15.25
2023-05-01T22:41:46.183Z,15.26
2023-05-01T22:46:47.839Z,15.23
2023-05-01T22:51:49.470Z,15.25
2023-05-01T22:56:51.735Z,15.24
2023-05-01T23:01:53.459Z,15.22
2023-05-01T23:06:55.098Z,15.17
2023-05-01T23:11:56.619Z,15.08
2023-05-01T23:16:58.944Z,15.14
2023-05-01T23:22:10.889Z,14.71
2023-05-01T23:27:13.514Z,15.01
2023-05-01T23:32:20.552Z,14.98
2023-05-01T23:37:22.167Z,15.02
2023-05-01T23:42:23.771Z,14.96
2023-05-01T23:47:25.739Z,15.01
2023-05-01T23:52:27.381Z,14.89
2023-05-01T23:57:28.979Z,14.89
